RYR717M EGCC-EDDB
Flight info
| Callsign | RYR717M |
|---|---|
| Flight time | N/A |
| Altitude | 37000 |
| Route | SONEX1Y SONEX L975 DESIG L603 LAMSO DCT EVELI DCT BATEL T207 OGBER OGBER1R |
| Aircraft | B38M/M-SDE1FGHILORVWXY/HB1 |
Departure
| Time | 2026-05-04 18:50 |
|---|---|
| Airport | Manchester Airport (EGCC) |
Arrival
| Time | N/A |
|---|---|
| Airport | Berlin Brandenburg Airport (EDDB) |
| Time | Latitude | Longitude | Altitude | Speed | Heading |
|---|---|---|---|---|---|
| 2026-05-04 17:50 | 53.35974 | -2.26976 | 257 ft | 0 kts | 291° |
| 2026-05-04 18:35 | 53.35970 | -2.26962 | 257 ft | 3 kts | 291° |
| 2026-05-04 18:35 | 53.35963 | -2.26932 | 257 ft | 3 kts | 289° |
| 2026-05-04 18:36 | 53.35960 | -2.26901 | 257 ft | 3 kts | 262° |
| 2026-05-04 18:36 | 53.35966 | -2.26872 | 257 ft | 3 kts | 233° |
| 2026-05-04 18:36 | 53.35979 | -2.26846 | 257 ft | 2 kts | 231° |
| 2026-05-04 18:36 | 53.35990 | -2.26823 | 257 ft | 3 kts | 231° |
| 2026-05-04 18:37 | 53.35996 | -2.26810 | 257 ft | 0 kts | 231° |
| 2026-05-04 18:40 | 53.35989 | -2.26824 | 257 ft | 5 kts | 223° |
| 2026-05-04 18:41 | 53.35971 | -2.26839 | 257 ft | 0 kts | 198° |
| 2026-05-04 18:41 | 53.35959 | -2.26840 | 257 ft | 7 kts | 173° |
| 2026-05-04 18:41 | 53.35925 | -2.26787 | 257 ft | 7 kts | 111° |
| 2026-05-04 18:41 | 53.35925 | -2.26784 | 257 ft | 0 kts | 110° |
| 2026-05-04 18:46 | 53.35918 | -2.26758 | 257 ft | 7 kts | 112° |
| 2026-05-04 18:46 | 53.35872 | -2.26693 | 265 ft | 10 kts | 165° |
| 2026-05-04 18:46 | 53.35785 | -2.26668 | 272 ft | 17 kts | 171° |
| 2026-05-04 18:47 | 53.35648 | -2.26627 | 271 ft | 19 kts | 169° |
| 2026-05-04 18:47 | 53.35573 | -2.26639 | 266 ft | 15 kts | 206° |
| 2026-05-04 18:47 | 53.35485 | -2.26799 | 259 ft | 21 kts | 230° |
| 2026-05-04 18:47 | 53.35405 | -2.26967 | 251 ft | 20 kts | 231° |
| 2026-05-04 18:48 | 53.35340 | -2.27103 | 247 ft | 16 kts | 231° |
| 2026-05-04 18:48 | 53.35304 | -2.27173 | 244 ft | 16 kts | 222° |
| 2026-05-04 18:48 | 53.35279 | -2.27198 | 242 ft | 0 kts | 205° |
| 2026-05-04 18:48 | 53.35259 | -2.27209 | 241 ft | 8 kts | 196° |
| 2026-05-04 18:49 | 53.35176 | -2.27238 | 235 ft | 15 kts | 192° |
| 2026-05-04 18:49 | 53.35062 | -2.27278 | 229 ft | 13 kts | 192° |
| 2026-05-04 18:49 | 53.35007 | -2.27324 | 228 ft | 3 kts | 229° |
| 2026-05-04 18:49 | 53.34997 | -2.27344 | 228 ft | 17 kts | 230° |
| 2026-05-04 18:50 | 53.34758 | -2.27838 | 225 ft | 94 kts | 230° |
| 2026-05-04 18:50 | 53.34185 | -2.29016 | 241 ft | 157 kts | 230° |
| 2026-05-04 18:50 | 53.33455 | -2.30467 | 791 ft | 172 kts | 230° |
| 2026-05-04 18:50 | 53.32667 | -2.32027 | 1618 ft | 178 kts | 233° |
| 2026-05-04 18:51 | 53.31888 | -2.33716 | 2236 ft | 196 kts | 243° |
| 2026-05-04 18:51 | 53.31539 | -2.36035 | 2716 ft | 215 kts | 275° |
| 2026-05-04 18:51 | 53.32005 | -2.38494 | 3331 ft | 233 kts | 306° |
| 2026-05-04 18:51 | 53.33234 | -2.40264 | 4149 ft | 245 kts | 333° |
| 2026-05-04 18:52 | 53.34912 | -2.41210 | 4820 ft | 260 kts | 342° |
| 2026-05-04 18:52 | 53.36633 | -2.42111 | 5903 ft | 260 kts | 342° |
| 2026-05-04 18:52 | 53.38383 | -2.43025 | 6846 ft | 266 kts | 342° |
| 2026-05-04 18:52 | 53.40151 | -2.43943 | 7761 ft | 271 kts | 341° |
| 2026-05-04 18:53 | 53.41987 | -2.44902 | 8707 ft | 274 kts | 341° |
| 2026-05-04 18:53 | 53.43843 | -2.45562 | 9564 ft | 283 kts | 358° |
| 2026-05-04 18:53 | 53.45747 | -2.44682 | 10411 ft | 294 kts | 30° |
| 2026-05-04 18:53 | 53.47175 | -2.42147 | 10891 ft | 313 kts | 63° |
| 2026-05-04 18:54 | 53.47679 | -2.38536 | 11473 ft | 326 kts | 86° |
| 2026-05-04 18:54 | 53.47954 | -2.34703 | 12074 ft | 337 kts | 81° |
| 2026-05-04 18:54 | 53.48345 | -2.30856 | 12959 ft | 339 kts | 80° |
| 2026-05-04 18:54 | 53.48753 | -2.27046 | 13694 ft | 346 kts | 79° |
| 2026-05-04 18:55 | 53.49180 | -2.23129 | 14475 ft | 348 kts | 80° |
| 2026-05-04 18:55 | 53.50032 | -2.15053 | 15938 ft | 357 kts | 80° |
| 2026-05-04 18:55 | 53.50470 | -2.10885 | 16755 ft | 358 kts | 80° |
| 2026-05-04 18:56 | 53.50900 | -2.06793 | 17453 ft | 363 kts | 81° |
| 2026-05-04 18:56 | 53.51346 | -2.02542 | 18166 ft | 367 kts | 80° |
| 2026-05-04 18:56 | 53.51786 | -1.98320 | 18826 ft | 369 kts | 80° |
| 2026-05-04 18:56 | 53.52230 | -1.94059 | 19459 ft | 371 kts | 80° |
| 2026-05-04 18:57 | 53.52489 | -1.89796 | 20061 ft | 373 kts | 94° |
| 2026-05-04 18:57 | 53.51984 | -1.85532 | 20685 ft | 374 kts | 106° |
| 2026-05-04 18:57 | 53.51277 | -1.81272 | 21259 ft | 377 kts | 106° |
| 2026-05-04 18:57 | 53.50568 | -1.77086 | 21874 ft | 379 kts | 106° |
| 2026-05-04 18:58 | 53.49831 | -1.72827 | 22478 ft | 381 kts | 106° |
| 2026-05-04 18:58 | 53.49082 | -1.68557 | 23101 ft | 383 kts | 106° |
| 2026-05-04 18:58 | 53.48323 | -1.64260 | 23670 ft | 385 kts | 106° |
| 2026-05-04 18:58 | 53.47555 | -1.59931 | 24109 ft | 388 kts | 106° |
| 2026-05-04 18:59 | 53.46779 | -1.55587 | 24587 ft | 390 kts | 106° |
| 2026-05-04 18:59 | 53.45997 | -1.51221 | 25043 ft | 393 kts | 106° |
| 2026-05-04 18:59 | 53.45208 | -1.46821 | 25477 ft | 395 kts | 106° |
| 2026-05-04 18:59 | 53.44414 | -1.42404 | 25940 ft | 397 kts | 106° |
| 2026-05-04 19:00 | 53.43612 | -1.37957 | 26397 ft | 399 kts | 106° |
| 2026-05-04 19:00 | 53.42806 | -1.33499 | 26825 ft | 401 kts | 106° |
| 2026-05-04 19:00 | 53.41995 | -1.29017 | 27272 ft | 403 kts | 106° |
| 2026-05-04 19:00 | 53.41179 | -1.24511 | 27700 ft | 405 kts | 105° |
| 2026-05-04 19:01 | 53.40358 | -1.20000 | 28128 ft | 406 kts | 105° |
| 2026-05-04 19:01 | 53.39529 | -1.15449 | 28539 ft | 408 kts | 105° |
| 2026-05-04 19:01 | 53.38697 | -1.10896 | 28942 ft | 410 kts | 105° |
| 2026-05-04 19:01 | 53.37859 | -1.06320 | 29341 ft | 412 kts | 105° |
| 2026-05-04 19:02 | 53.37014 | -1.01723 | 29731 ft | 414 kts | 105° |
| 2026-05-04 19:02 | 53.36162 | -0.97095 | 30097 ft | 417 kts | 105° |
| 2026-05-04 19:02 | 53.35307 | -0.92463 | 30410 ft | 419 kts | 105° |
| 2026-05-04 19:02 | 53.34443 | -0.87789 | 30719 ft | 421 kts | 105° |
| 2026-05-04 19:03 | 53.33575 | -0.83109 | 30998 ft | 423 kts | 106° |
| 2026-05-04 19:03 | 53.32697 | -0.78390 | 31284 ft | 425 kts | 106° |
| 2026-05-04 19:03 | 53.31820 | -0.73683 | 31572 ft | 427 kts | 106° |
| 2026-05-04 19:03 | 53.30943 | -0.68987 | 31847 ft | 429 kts | 106° |
| 2026-05-04 19:04 | 53.30047 | -0.64209 | 32131 ft | 431 kts | 106° |
| 2026-05-04 19:04 | 53.29134 | -0.59350 | 32397 ft | 434 kts | 106° |
| 2026-05-04 19:04 | 53.28241 | -0.54605 | 32671 ft | 436 kts | 106° |
| 2026-05-04 19:04 | 53.27328 | -0.49767 | 32956 ft | 438 kts | 106° |
| 2026-05-04 19:05 | 53.26397 | -0.44846 | 33308 ft | 438 kts | 106° |
| 2026-05-04 19:05 | 53.25490 | -0.40068 | 33677 ft | 437 kts | 106° |
| 2026-05-04 19:05 | 53.24570 | -0.35235 | 34033 ft | 437 kts | 107° |
| 2026-05-04 19:05 | 53.23647 | -0.30394 | 34244 ft | 439 kts | 107° |
| 2026-05-04 19:06 | 53.22717 | -0.25533 | 34504 ft | 440 kts | 107° |
| 2026-05-04 19:06 | 53.21792 | -0.20707 | 34762 ft | 440 kts | 107° |
| 2026-05-04 19:06 | 53.20857 | -0.15846 | 35015 ft | 441 kts | 107° |
| 2026-05-04 19:06 | 53.19916 | -0.10961 | 35264 ft | 442 kts | 107° |
| 2026-05-04 19:07 | 53.18973 | -0.06080 | 35528 ft | 442 kts | 108° |
| 2026-05-04 19:07 | 53.18029 | -0.01205 | 35775 ft | 443 kts | 108° |
| 2026-05-04 19:07 | 53.17077 | 0.03696 | 35974 ft | 445 kts | 108° |
| 2026-05-04 19:07 | 53.16124 | 0.08596 | 36131 ft | 447 kts | 108° |
| 2026-05-04 19:08 | 53.15159 | 0.13538 | 36365 ft | 448 kts | 108° |
| 2026-05-04 19:08 | 53.14195 | 0.18465 | 36588 ft | 449 kts | 109° |
| 2026-05-04 19:08 | 53.13227 | 0.23404 | 36809 ft | 449 kts | 109° |
| 2026-05-04 19:08 | 53.12253 | 0.28354 | 37019 ft | 450 kts | 109° |
| 2026-05-04 19:09 | 53.10299 | 0.38247 | 37038 ft | 449 kts | 109° |
| 2026-05-04 19:09 | 53.08347 | 0.48081 | 37050 ft | 449 kts | 109° |
| 2026-05-04 19:10 | 53.06382 | 0.57933 | 37048 ft | 450 kts | 109° |
| 2026-05-04 19:10 | 53.04402 | 0.67810 | 37048 ft | 450 kts | 109° |
| 2026-05-04 19:11 | 53.02414 | 0.77679 | 37048 ft | 450 kts | 109° |
| 2026-05-04 19:11 | 53.00420 | 0.87525 | 37048 ft | 450 kts | 109° |
| 2026-05-04 19:12 | 52.97607 | 1.02406 | 37044 ft | 451 kts | 101° |
| 2026-05-04 19:13 | 52.96421 | 1.12671 | 37038 ft | 454 kts | 102° |
| 2026-05-04 19:13 | 52.95225 | 1.22964 | 37048 ft | 454 kts | 102° |
| 2026-05-04 19:14 | 52.94027 | 1.33224 | 37048 ft | 454 kts | 102° |
| 2026-05-04 19:14 | 52.92819 | 1.43487 | 37048 ft | 454 kts | 102° |
| 2026-05-04 19:15 | 52.91600 | 1.53764 | 37043 ft | 454 kts | 102° |
| 2026-05-04 19:15 | 52.90370 | 1.64061 | 37047 ft | 457 kts | 102° |
| 2026-05-04 19:16 | 52.89133 | 1.74332 | 37045 ft | 457 kts | 103° |
| 2026-05-04 19:16 | 52.87889 | 1.84582 | 37046 ft | 457 kts | 103° |
| 2026-05-04 19:17 | 52.86629 | 1.94879 | 37045 ft | 457 kts | 103° |
| 2026-05-04 19:17 | 52.85358 | 2.05181 | 37044 ft | 457 kts | 103° |
| 2026-05-04 19:18 | 52.84083 | 2.15455 | 37043 ft | 458 kts | 103° |
| 2026-05-04 19:18 | 52.82792 | 2.25775 | 37040 ft | 458 kts | 103° |
| 2026-05-04 19:19 | 52.81497 | 2.36052 | 37045 ft | 458 kts | 103° |
| 2026-05-04 19:19 | 52.80189 | 2.46365 | 37044 ft | 458 kts | 103° |
| 2026-05-04 19:20 | 52.79086 | 2.54961 | 37036 ft | 458 kts | 104° |
| 2026-05-04 19:20 | 52.77771 | 2.65181 | 37041 ft | 458 kts | 104° |
| 2026-05-04 19:21 | 52.76436 | 2.75469 | 37038 ft | 458 kts | 104° |
| 2026-05-04 19:21 | 52.75096 | 2.85728 | 37016 ft | 458 kts | 104° |
| 2026-05-04 19:22 | 52.73746 | 2.95983 | 37042 ft | 459 kts | 104° |
| 2026-05-04 19:22 | 52.71766 | 3.05907 | 37033 ft | 456 kts | 113° |
| 2026-05-04 19:23 | 52.69487 | 3.15666 | 37035 ft | 458 kts | 114° |
| 2026-05-04 19:23 | 52.67183 | 3.25440 | 37026 ft | 457 kts | 114° |
| 2026-05-04 19:24 | 52.64890 | 3.35201 | 37023 ft | 458 kts | 110° |
| 2026-05-04 19:24 | 52.64264 | 3.40343 | 37012 ft | 460 kts | 94° |
| 2026-05-04 19:24 | 52.64283 | 3.45601 | 37036 ft | 463 kts | 91° |